sensor_id;sensor_type;location;lat;lon;timestamp;temperature;humidity
68450;SHT30;67758;39.572;2.652;2024-02-21T00:02:08;11.22;68.29
68450;SHT30;67758;39.572;2.652;2024-02-21T00:04:33;11.19;68.45
68450;SHT30;67758;39.572;2.652;2024-02-21T00:07:00;11.23;68.61
68450;SHT30;67758;39.572;2.652;2024-02-21T00:09:25;11.17;68.75
68450;SHT30;67758;39.572;2.652;2024-02-21T00:11:51;11.12;69.03
68450;SHT30;67758;39.572;2.652;2024-02-21T00:14:17;11.16;68.68
68450;SHT30;67758;39.572;2.652;2024-02-21T00:16:43;11.24;69.03
68450;SHT30;67758;39.572;2.652;2024-02-21T00:19:09;11.17;68.48
68450;SHT30;67758;39.572;2.652;2024-02-21T00:21:34;11.20;68.26
68450;SHT30;67758;39.572;2.652;2024-02-21T00:24:00;11.13;68.12
68450;SHT30;67758;39.572;2.652;2024-02-21T00:26:26;11.09;68.64
68450;SHT30;67758;39.572;2.652;2024-02-21T00:28:51;11.19;69.11
68450;SHT30;67758;39.572;2.652;2024-02-21T00:31:17;11.03;69.47
68450;SHT30;67758;39.572;2.652;2024-02-21T00:33:42;11.19;69.18
68450;SHT30;67758;39.572;2.652;2024-02-21T00:36:08;11.16;68.55
68450;SHT30;67758;39.572;2.652;2024-02-21T00:38:34;11.20;68.78
68450;SHT30;67758;39.572;2.652;2024-02-21T00:40:59;11.16;68.59
68450;SHT30;67758;39.572;2.652;2024-02-21T00:43:25;11.10;69.12
68450;SHT30;67758;39.572;2.652;2024-02-21T00:45:50;10.95;69.42
68450;SHT30;67758;39.572;2.652;2024-02-21T00:48:16;11.06;69.90
68450;SHT30;67758;39.572;2.652;2024-02-21T00:50:42;11.10;69.05
68450;SHT30;67758;39.572;2.652;2024-02-21T00:53:07;10.96;68.99
68450;SHT30;67758;39.572;2.652;2024-02-21T00:55:34;10.86;69.19
68450;SHT30;67758;39.572;2.652;2024-02-21T00:57:59;10.79;69.65
68450;SHT30;67758;39.572;2.652;2024-02-21T01:00:27;10.73;69.66
68450;SHT30;67758;39.572;2.652;2024-02-21T01:02:53;10.66;69.79
68450;SHT30;67758;39.572;2.652;2024-02-21T01:05:19;10.64;70.21
68450;SHT30;67758;39.572;2.652;2024-02-21T01:07:45;10.51;70.07
68450;SHT30;67758;39.572;2.652;2024-02-21T01:10:11;10.40;70.39
68450;SHT30;67758;39.572;2.652;2024-02-21T01:12:37;10.49;70.85
68450;SHT30;67758;39.572;2.652;2024-02-21T01:15:03;10.49;70.74
68450;SHT30;67758;39.572;2.652;2024-02-21T01:17:29;10.41;70.65
68450;SHT30;67758;39.572;2.652;2024-02-21T01:20:03;10.30;71.16
68450;SHT30;67758;39.572;2.652;2024-02-21T01:22:31;10.22;71.31
68450;SHT30;67758;39.572;2.652;2024-02-21T01:24:56;10.20;71.63
68450;SHT30;67758;39.572;2.652;2024-02-21T01:27:22;10.20;71.44
68450;SHT30;67758;39.572;2.652;2024-02-21T01:29:47;10.14;71.60
68450;SHT30;67758;39.572;2.652;2024-02-21T01:32:15;10.05;71.69
68450;SHT30;67758;39.572;2.652;2024-02-21T01:34:41;10.03;71.63
68450;SHT30;67758;39.572;2.652;2024-02-21T01:37:06;10.03;71.73
68450;SHT30;67758;39.572;2.652;2024-02-21T01:39:33;10.00;71.83
68450;SHT30;67758;39.572;2.652;2024-02-21T01:41:59;9.97;71.82
68450;SHT30;67758;39.572;2.652;2024-02-21T01:44:25;10.04;71.75
68450;SHT30;67758;39.572;2.652;2024-02-21T01:46:51;10.05;71.86
68450;SHT30;67758;39.572;2.652;2024-02-21T01:49:17;10.03;72.03
68450;SHT30;67758;39.572;2.652;2024-02-21T01:51:43;9.98;72.28
68450;SHT30;67758;39.572;2.652;2024-02-21T01:54:10;9.94;72.38
68450;SHT30;67758;39.572;2.652;2024-02-21T01:56:36;9.93;72.59
68450;SHT30;67758;39.572;2.652;2024-02-21T01:59:02;9.87;72.70
68450;SHT30;67758;39.572;2.652;2024-02-21T02:01:29;9.91;72.70
68450;SHT30;67758;39.572;2.652;2024-02-21T02:03:55;9.91;72.61
68450;SHT30;67758;39.572;2.652;2024-02-21T02:06:20;9.87;72.71
68450;SHT30;67758;39.572;2.652;2024-02-21T02:08:46;9.87;72.73
68450;SHT30;67758;39.572;2.652;2024-02-21T02:11:13;9.77;72.78
68450;SHT30;67758;39.572;2.652;2024-02-21T02:13:40;9.77;73.25
68450;SHT30;67758;39.572;2.652;2024-02-21T02:16:06;9.90;73.48
68450;SHT30;67758;39.572;2.652;2024-02-21T02:18:31;9.80;73.21
68450;SHT30;67758;39.572;2.652;2024-02-21T02:20:57;9.83;73.65
68450;SHT30;67758;39.572;2.652;2024-02-21T02:23:32;9.84;74.24
68450;SHT30;67758;39.572;2.652;2024-02-21T02:25:58;9.83;73.89
68450;SHT30;67758;39.572;2.652;2024-02-21T02:28:24;9.83;73.41
68450;SHT30;67758;39.572;2.652;2024-02-21T02:30:50;9.84;73.06
68450;SHT30;67758;39.572;2.652;2024-02-21T02:33:16;9.79;73.12
68450;SHT30;67758;39.572;2.652;2024-02-21T02:35:47;9.72;73.18
68450;SHT30;67758;39.572;2.652;2024-02-21T02:38:13;9.73;73.21
68450;SHT30;67758;39.572;2.652;2024-02-21T02:40:39;9.74;73.03
68450;SHT30;67758;39.572;2.652;2024-02-21T02:43:06;9.80;73.44
68450;SHT30;67758;39.572;2.652;2024-02-21T02:45:32;9.73;73.01
68450;SHT30;67758;39.572;2.652;2024-02-21T02:47:58;9.72;73.06
68450;SHT30;67758;39.572;2.652;2024-02-21T02:50:24;9.66;72.88
68450;SHT30;67758;39.572;2.652;2024-02-21T02:52:50;9.62;73.06
68450;SHT30;67758;39.572;2.652;2024-02-21T02:55:16;9.57;73.16
68450;SHT30;67758;39.572;2.652;2024-02-21T02:57:42;9.56;72.97
68450;SHT30;67758;39.572;2.652;2024-02-21T03:00:08;9.54;72.94
68450;SHT30;67758;39.572;2.652;2024-02-21T03:02:35;9.52;73.00
68450;SHT30;67758;39.572;2.652;2024-02-21T03:05:00;9.47;73.23
68450;SHT30;67758;39.572;2.652;2024-02-21T03:07:26;9.43;73.42
68450;SHT30;67758;39.572;2.652;2024-02-21T03:09:52;9.47;73.65
68450;SHT30;67758;39.572;2.652;2024-02-21T03:12:19;9.49;73.02
68450;SHT30;67758;39.572;2.652;2024-02-21T03:14:50;9.39;73.42
68450;SHT30;67758;39.572;2.652;2024-02-21T03:17:16;9.43;73.46
68450;SHT30;67758;39.572;2.652;2024-02-21T03:19:41;9.33;73.69
68450;SHT30;67758;39.572;2.652;2024-02-21T03:22:07;9.32;73.65
68450;SHT30;67758;39.572;2.652;2024-02-21T03:24:33;9.38;73.56
68450;SHT30;67758;39.572;2.652;2024-02-21T03:26:58;9.26;73.53
68450;SHT30;67758;39.572;2.652;2024-02-21T03:29:25;9.19;73.60
68450;SHT30;67758;39.572;2.652;2024-02-21T03:31:50;9.16;73.92
68450;SHT30;67758;39.572;2.652;2024-02-21T03:34:16;9.18;74.08
68450;SHT30;67758;39.572;2.652;2024-02-21T03:36:41;9.19;74.07
68450;SHT30;67758;39.572;2.652;2024-02-21T03:39:07;9.19;73.91
68450;SHT30;67758;39.572;2.652;2024-02-21T03:41:34;9.12;73.79
68450;SHT30;67758;39.572;2.652;2024-02-21T03:44:01;9.14;74.05
68450;SHT30;67758;39.572;2.652;2024-02-21T03:46:27;9.21;74.10
68450;SHT30;67758;39.572;2.652;2024-02-21T03:48:53;9.19;73.91
68450;SHT30;67758;39.572;2.652;2024-02-21T03:51:19;9.16;73.95
68450;SHT30;67758;39.572;2.652;2024-02-21T03:53:45;9.14;73.93
68450;SHT30;67758;39.572;2.652;2024-02-21T03:56:11;9.15;74.05
68450;SHT30;67758;39.572;2.652;2024-02-21T03:58:36;9.22;74.11
68450;SHT30;67758;39.572;2.652;2024-02-21T04:01:03;9.18;73.89
68450;SHT30;67758;39.572;2.652;2024-02-21T04:03:29;9.15;74.02
68450;SHT30;67758;39.572;2.652;2024-02-21T04:05:55;9.12;74.11
68450;SHT30;67758;39.572;2.652;2024-02-21T04:08:22;9.18;74.04
68450;SHT30;67758;39.572;2.652;2024-02-21T04:10:47;9.19;74.16
68450;SHT30;67758;39.572;2.652;2024-02-21T04:13:13;9.15;73.92
68450;SHT30;67758;39.572;2.652;2024-02-21T04:15:39;9.26;73.99
68450;SHT30;67758;39.572;2.652;2024-02-21T04:18:04;9.42;73.53
68450;SHT30;67758;39.572;2.652;2024-02-21T04:20:30;9.43;73.39
68450;SHT30;67758;39.572;2.652;2024-02-21T04:22:56;9.32;73.08
68450;SHT30;67758;39.572;2.652;2024-02-21T04:25:22;9.29;72.92
68450;SHT30;67758;39.572;2.652;2024-02-21T04:27:48;9.26;72.91
68450;SHT30;67758;39.572;2.652;2024-02-21T04:30:13;9.25;73.03
68450;SHT30;67758;39.572;2.652;2024-02-21T04:32:39;9.21;73.20
68450;SHT30;67758;39.572;2.652;2024-02-21T04:35:06;9.46;73.63
68450;SHT30;67758;39.572;2.652;2024-02-21T04:37:32;9.39;72.90
68450;SHT30;67758;39.572;2.652;2024-02-21T04:39:58;9.38;73.53
68450;SHT30;67758;39.572;2.652;2024-02-21T04:42:23;9.26;74.66
68450;SHT30;67758;39.572;2.652;2024-02-21T04:44:49;9.19;75.05
68450;SHT30;67758;39.572;2.652;2024-02-21T04:47:14;9.01;75.40
68450;SHT30;67758;39.572;2.652;2024-02-21T04:49:40;8.89;75.82
68450;SHT30;67758;39.572;2.652;2024-02-21T04:52:06;8.82;75.78
68450;SHT30;67758;39.572;2.652;2024-02-21T04:54:31;8.89;75.11
68450;SHT30;67758;39.572;2.652;2024-02-21T04:56:57;8.91;74.93
68450;SHT30;67758;39.572;2.652;2024-02-21T04:59:22;9.04;74.67
68450;SHT30;67758;39.572;2.652;2024-02-21T05:01:48;9.09;74.46
68450;SHT30;67758;39.572;2.652;2024-02-21T05:04:14;9.14;74.35
68450;SHT30;67758;39.572;2.652;2024-02-21T05:06:40;9.11;74.46
68450;SHT30;67758;39.572;2.652;2024-02-21T05:09:07;9.09;74.64
68450;SHT30;67758;39.572;2.652;2024-02-21T05:11:36;9.08;74.68
68450;SHT30;67758;39.572;2.652;2024-02-21T05:14:03;9.05;74.86
68450;SHT30;67758;39.572;2.652;2024-02-21T05:16:29;9.07;74.95
68450;SHT30;67758;39.572;2.652;2024-02-21T05:18:55;9.00;74.90
68450;SHT30;67758;39.572;2.652;2024-02-21T05:21:23;8.84;75.20
68450;SHT30;67758;39.572;2.652;2024-02-21T05:23:52;8.75;75.52
68450;SHT30;67758;39.572;2.652;2024-02-21T05:26:25;8.75;75.64
68450;SHT30;67758;39.572;2.652;2024-02-21T05:28:51;8.82;76.41
68450;SHT30;67758;39.572;2.652;2024-02-21T05:31:20;8.68;75.83
68450;SHT30;67758;39.572;2.652;2024-02-21T05:33:46;8.64;75.77
68450;SHT30;67758;39.572;2.652;2024-02-21T05:36:13;8.63;76.03
68450;SHT30;67758;39.572;2.652;2024-02-21T05:38:39;8.64;76.16
68450;SHT30;67758;39.572;2.652;2024-02-21T05:41:04;8.51;76.31
68450;SHT30;67758;39.572;2.652;2024-02-21T05:43:30;8.47;76.66
68450;SHT30;67758;39.572;2.652;2024-02-21T05:45:56;8.37;76.94
68450;SHT30;67758;39.572;2.652;2024-02-21T05:48:22;8.37;77.05
68450;SHT30;67758;39.572;2.652;2024-02-21T05:50:48;8.33;77.11
68450;SHT30;67758;39.572;2.652;2024-02-21T05:53:14;8.29;77.12
68450;SHT30;67758;39.572;2.652;2024-02-21T05:55:40;8.34;77.14
68450;SHT30;67758;39.572;2.652;2024-02-21T05:58:06;8.29;77.53
68450;SHT30;67758;39.572;2.652;2024-02-21T06:00:32;8.20;77.63
68450;SHT30;67758;39.572;2.652;2024-02-21T06:02:58;8.29;77.97
68450;SHT30;67758;39.572;2.652;2024-02-21T06:05:24;8.34;77.79
68450;SHT30;67758;39.572;2.652;2024-02-21T06:07:49;8.32;77.59
68450;SHT30;67758;39.572;2.652;2024-02-21T06:10:15;8.26;77.83
68450;SHT30;67758;39.572;2.652;2024-02-21T06:12:41;8.22;77.67
68450;SHT30;67758;39.572;2.652;2024-02-21T06:15:07;8.22;77.74
68450;SHT30;67758;39.572;2.652;2024-02-21T06:17:33;8.25;77.76
68450;SHT30;67758;39.572;2.652;2024-02-21T06:19:58;8.33;77.42
68450;SHT30;67758;39.572;2.652;2024-02-21T06:22:24;8.36;77.25
68450;SHT30;67758;39.572;2.652;2024-02-21T06:24:49;8.43;77.01
68450;SHT30;67758;39.572;2.652;2024-02-21T06:27:15;8.57;76.98
68450;SHT30;67758;39.572;2.652;2024-02-21T06:29:42;8.50;76.82
68450;SHT30;67758;39.572;2.652;2024-02-21T06:32:08;8.63;76.70
68450;SHT30;67758;39.572;2.652;2024-02-21T06:34:33;8.70;76.48
68450;SHT30;67758;39.572;2.652;2024-02-21T06:36:59;8.70;76.50
68450;SHT30;67758;39.572;2.652;2024-02-21T06:39:25;8.70;76.49
68450;SHT30;67758;39.572;2.652;2024-02-21T06:41:51;8.71;76.65
68450;SHT30;67758;39.572;2.652;2024-02-21T06:44:17;8.85;76.53
68450;SHT30;67758;39.572;2.652;2024-02-21T06:46:43;8.82;76.36
68450;SHT30;67758;39.572;2.652;2024-02-21T06:49:08;8.84;76.30
68450;SHT30;67758;39.572;2.652;2024-02-21T06:51:34;8.87;76.28
68450;SHT30;67758;39.572;2.652;2024-02-21T06:54:00;8.88;75.99
68450;SHT30;67758;39.572;2.652;2024-02-21T06:56:26;8.95;75.86
68450;SHT30;67758;39.572;2.652;2024-02-21T06:58:55;9.00;75.87
68450;SHT30;67758;39.572;2.652;2024-02-21T07:01:21;9.05;75.77
68450;SHT30;67758;39.572;2.652;2024-02-21T07:03:46;9.21;75.26
68450;SHT30;67758;39.572;2.652;2024-02-21T07:06:12;9.32;75.00
68450;SHT30;67758;39.572;2.652;2024-02-21T07:08:38;9.40;74.90
68450;SHT30;67758;39.572;2.652;2024-02-21T07:11:04;9.43;74.90
68450;SHT30;67758;39.572;2.652;2024-02-21T07:13:32;9.49;74.90
68450;SHT30;67758;39.572;2.652;2024-02-21T07:15:58;9.54;74.96
68450;SHT30;67758;39.572;2.652;2024-02-21T07:18:23;9.60;74.28
68450;SHT30;67758;39.572;2.652;2024-02-21T07:20:51;9.67;74.17
68450;SHT30;67758;39.572;2.652;2024-02-21T07:23:18;9.74;73.26
68450;SHT30;67758;39.572;2.652;2024-02-21T07:25:43;9.87;73.17
68450;SHT30;67758;39.572;2.652;2024-02-21T07:28:09;9.80;72.40
68450;SHT30;67758;39.572;2.652;2024-02-21T07:30:35;9.83;72.16
68450;SHT30;67758;39.572;2.652;2024-02-21T07:33:00;9.93;71.93
68450;SHT30;67758;39.572;2.652;2024-02-21T07:35:26;9.91;71.88
68450;SHT30;67758;39.572;2.652;2024-02-21T07:37:52;10.00;71.49
68450;SHT30;67758;39.572;2.652;2024-02-21T07:40:17;10.07;71.53
68450;SHT30;67758;39.572;2.652;2024-02-21T07:42:43;10.14;71.49
68450;SHT30;67758;39.572;2.652;2024-02-21T07:45:09;10.24;71.85
68450;SHT30;67758;39.572;2.652;2024-02-21T07:47:36;10.30;71.55
68450;SHT30;67758;39.572;2.652;2024-02-21T07:50:02;10.27;71.81
68450;SHT30;67758;39.572;2.652;2024-02-21T07:52:28;10.27;72.09
68450;SHT30;67758;39.572;2.652;2024-02-21T07:54:54;10.28;72.25
68450;SHT30;67758;39.572;2.652;2024-02-21T07:57:19;10.40;72.83
68450;SHT30;67758;39.572;2.652;2024-02-21T07:59:45;10.45;72.20
68450;SHT30;67758;39.572;2.652;2024-02-21T08:02:13;10.54;72.10
68450;SHT30;67758;39.572;2.652;2024-02-21T08:04:39;10.65;71.78
68450;SHT30;67758;39.572;2.652;2024-02-21T08:07:05;10.75;72.05
68450;SHT30;67758;39.572;2.652;2024-02-21T08:09:30;10.80;71.40
68450;SHT30;67758;39.572;2.652;2024-02-21T08:11:56;10.78;71.43
68450;SHT30;67758;39.572;2.652;2024-02-21T08:14:22;10.83;71.29
68450;SHT30;67758;39.572;2.652;2024-02-21T08:16:48;10.92;70.80
68450;SHT30;67758;39.572;2.652;2024-02-21T08:19:13;11.00;70.67
68450;SHT30;67758;39.572;2.652;2024-02-21T08:21:39;11.09;70.59
68450;SHT30;67758;39.572;2.652;2024-02-21T08:24:05;11.15;70.26
68450;SHT30;67758;39.572;2.652;2024-02-21T08:26:30;11.17;69.45
68450;SHT30;67758;39.572;2.652;2024-02-21T08:28:59;11.36;69.55
68450;SHT30;67758;39.572;2.652;2024-02-21T08:31:26;11.48;68.55
68450;SHT30;67758;39.572;2.652;2024-02-21T08:34:00;11.56;68.40
68450;SHT30;67758;39.572;2.652;2024-02-21T08:36:33;11.60;68.79
68450;SHT30;67758;39.572;2.652;2024-02-21T08:38:59;11.70;68.75
68450;SHT30;67758;39.572;2.652;2024-02-21T08:41:25;11.77;68.31
68450;SHT30;67758;39.572;2.652;2024-02-21T08:43:51;11.82;68.27
68450;SHT30;67758;39.572;2.652;2024-02-21T08:46:17;11.95;67.78
68450;SHT30;67758;39.572;2.652;2024-02-21T08:48:43;11.98;67.83
68450;SHT30;67758;39.572;2.652;2024-02-21T08:51:13;12.09;67.64
68450;SHT30;67758;39.572;2.652;2024-02-21T08:53:38;12.18;67.36
68450;SHT30;67758;39.572;2.652;2024-02-21T08:56:05;12.17;67.79
68450;SHT30;67758;39.572;2.652;2024-02-21T08:58:30;12.19;68.30
68450;SHT30;67758;39.572;2.652;2024-02-21T09:00:56;12.33;68.50
68450;SHT30;67758;39.572;2.652;2024-02-21T09:03:22;12.45;69.08
68450;SHT30;67758;39.572;2.652;2024-02-21T09:05:48;12.40;69.25
68450;SHT30;67758;39.572;2.652;2024-02-21T09:08:14;12.60;69.84
68450;SHT30;67758;39.572;2.652;2024-02-21T09:10:40;12.77;70.04
68450;SHT30;67758;39.572;2.652;2024-02-21T09:13:05;13.00;70.26
68450;SHT30;67758;39.572;2.652;2024-02-21T09:15:33;13.18;70.65
68450;SHT30;67758;39.572;2.652;2024-02-21T09:17:59;13.24;70.53
68450;SHT30;67758;39.572;2.652;2024-02-21T09:20:25;13.35;71.25
68450;SHT30;67758;39.572;2.652;2024-02-21T09:22:50;13.34;70.73
68450;SHT30;67758;39.572;2.652;2024-02-21T09:25:17;13.40;70.97
68450;SHT30;67758;39.572;2.652;2024-02-21T09:27:44;13.54;71.06
68450;SHT30;67758;39.572;2.652;2024-02-21T09:30:10;13.72;71.07
68450;SHT30;67758;39.572;2.652;2024-02-21T09:32:37;13.95;70.41
68450;SHT30;67758;39.572;2.652;2024-02-21T09:35:03;14.15;69.93
68450;SHT30;67758;39.572;2.652;2024-02-21T09:37:31;14.26;69.46
68450;SHT30;67758;39.572;2.652;2024-02-21T09:39:56;14.36;69.23
68450;SHT30;67758;39.572;2.652;2024-02-21T09:42:34;14.38;69.52
68450;SHT30;67758;39.572;2.652;2024-02-21T09:45:03;14.43;69.39
68450;SHT30;67758;39.572;2.652;2024-02-21T09:50:26;14.67;69.83
68450;SHT30;67758;39.572;2.652;2024-02-21T09:52:54;14.74;69.80
68450;SHT30;67758;39.572;2.652;2024-02-21T09:55:20;14.88;69.84
68450;SHT30;67758;39.572;2.652;2024-02-21T09:57:46;14.91;70.22
68450;SHT30;67758;39.572;2.652;2024-02-21T10:00:13;15.02;70.01
68450;SHT30;67758;39.572;2.652;2024-02-21T10:02:49;15.07;69.61
68450;SHT30;67758;39.572;2.652;2024-02-21T10:05:16;15.02;70.19
68450;SHT30;67758;39.572;2.652;2024-02-21T10:07:43;15.08;70.59
68450;SHT30;67758;39.572;2.652;2024-02-21T10:10:10;15.24;70.89
68450;SHT30;67758;39.572;2.652;2024-02-21T10:12:35;15.31;70.89
68450;SHT30;67758;39.572;2.652;2024-02-21T10:15:02;15.38;70.91
68450;SHT30;67758;39.572;2.652;2024-02-21T10:17:28;15.53;70.81
68450;SHT30;67758;39.572;2.652;2024-02-21T10:19:54;15.58;70.80
68450;SHT30;67758;39.572;2.652;2024-02-21T10:22:20;15.69;71.53
68450;SHT30;67758;39.572;2.652;2024-02-21T10:24:46;15.71;71.86
68450;SHT30;67758;39.572;2.652;2024-02-21T10:27:12;16.86;69.08
68450;SHT30;67758;39.572;2.652;2024-02-21T10:29:38;18.25;66.27
68450;SHT30;67758;39.572;2.652;2024-02-21T10:32:07;18.85;63.87
68450;SHT30;67758;39.572;2.652;2024-02-21T10:34:33;19.53;62.31
68450;SHT30;67758;39.572;2.652;2024-02-21T10:37:08;20.09;60.62
68450;SHT30;67758;39.572;2.652;2024-02-21T10:39:37;20.16;60.30
68450;SHT30;67758;39.572;2.652;2024-02-21T10:42:11;20.33;60.18
68450;SHT30;67758;39.572;2.652;2024-02-21T10:44:38;20.83;59.68
68450;SHT30;67758;39.572;2.652;2024-02-21T10:47:11;21.05;59.42
68450;SHT30;67758;39.572;2.652;2024-02-21T10:49:41;20.66;60.53
68450;SHT30;67758;39.572;2.652;2024-02-21T10:55:07;20.53;60.48
68450;SHT30;67758;39.572;2.652;2024-02-21T10:57:37;21.14;59.60
68450;SHT30;67758;39.572;2.652;2024-02-21T11:00:04;21.32;58.08
68450;SHT30;67758;39.572;2.652;2024-02-21T11:02:33;21.75;56.91
68450;SHT30;67758;39.572;2.652;2024-02-21T11:05:01;21.32;57.21
68450;SHT30;67758;39.572;2.652;2024-02-21T11:07:29;21.65;58.04
68450;SHT30;67758;39.572;2.652;2024-02-21T11:09:55;21.72;57.26
68450;SHT30;67758;39.572;2.652;2024-02-21T11:12:21;21.15;59.10
68450;SHT30;67758;39.572;2.652;2024-02-21T11:14:47;20.74;60.49
68450;SHT30;67758;39.572;2.652;2024-02-21T11:17:16;20.81;60.48
68450;SHT30;67758;39.572;2.652;2024-02-21T11:19:43;21.32;59.58
68450;SHT30;67758;39.572;2.652;2024-02-21T11:22:19;21.75;58.42
68450;SHT30;67758;39.572;2.652;2024-02-21T11:24:46;22.17;57.62
68450;SHT30;67758;39.572;2.652;2024-02-21T11:27:23;22.26;57.73
68450;SHT30;67758;39.572;2.652;2024-02-21T11:29:58;22.33;57.71
68450;SHT30;67758;39.572;2.652;2024-02-21T11:32:25;22.68;56.90
68450;SHT30;67758;39.572;2.652;2024-02-21T11:37:28;21.97;58.33
68450;SHT30;67758;39.572;2.652;2024-02-21T11:39:55;21.83;58.84
68450;SHT30;67758;39.572;2.652;2024-02-21T11:42:20;22.10;58.21
68450;SHT30;67758;39.572;2.652;2024-02-21T11:44:46;22.30;57.38
68450;SHT30;67758;39.572;2.652;2024-02-21T11:47:14;22.53;57.46
68450;SHT30;67758;39.572;2.652;2024-02-21T11:49:45;22.43;57.07
68450;SHT30;67758;39.572;2.652;2024-02-21T11:52:12;22.84;56.59
68450;SHT30;67758;39.572;2.652;2024-02-21T11:54:44;23.22;55.25
68450;SHT30;67758;39.572;2.652;2024-02-21T11:57:10;23.56;54.75
68450;SHT30;67758;39.572;2.652;2024-02-21T11:59:36;24.30;53.34
68450;SHT30;67758;39.572;2.652;2024-02-21T12:02:03;23.81;54.17
68450;SHT30;67758;39.572;2.652;2024-02-21T12:04:29;22.16;57.48
68450;SHT30;67758;39.572;2.652;2024-02-21T12:06:59;22.34;57.07
68450;SHT30;67758;39.572;2.652;2024-02-21T12:09:27;22.32;56.80
68450;SHT30;67758;39.572;2.652;2024-02-21T12:12:00;22.69;56.08
68450;SHT30;67758;39.572;2.652;2024-02-21T12:14:28;23.18;55.09
68450;SHT30;67758;39.572;2.652;2024-02-21T12:16:55;23.02;55.12
68450;SHT30;67758;39.572;2.652;2024-02-21T12:19:21;22.57;56.20
68450;SHT30;67758;39.572;2.652;2024-02-21T12:21:48;22.29;56.76
68450;SHT30;67758;39.572;2.652;2024-02-21T12:24:17;22.65;55.76
68450;SHT30;67758;39.572;2.652;2024-02-21T12:26:45;23.29;54.54
68450;SHT30;67758;39.572;2.652;2024-02-21T12:29:11;23.74;53.01
68450;SHT30;67758;39.572;2.652;2024-02-21T12:31:39;23.28;54.11
68450;SHT30;67758;39.572;2.652;2024-02-21T12:34:05;23.45;53.04
68450;SHT30;67758;39.572;2.652;2024-02-21T12:36:45;22.88;53.76
68450;SHT30;67758;39.572;2.652;2024-02-21T12:39:13;22.36;54.67
68450;SHT30;67758;39.572;2.652;2024-02-21T12:41:40;22.06;55.62
68450;SHT30;67758;39.572;2.652;2024-02-21T12:44:10;22.27;54.71
68450;SHT30;67758;39.572;2.652;2024-02-21T12:46:37;21.92;55.58
68450;SHT30;67758;39.572;2.652;2024-02-21T12:49:03;21.88;55.68
68450;SHT30;67758;39.572;2.652;2024-02-21T12:51:30;21.95;55.06
68450;SHT30;67758;39.572;2.652;2024-02-21T12:53:56;21.89;55.04
68450;SHT30;67758;39.572;2.652;2024-02-21T12:56:22;21.51;55.46
68450;SHT30;67758;39.572;2.652;2024-02-21T12:58:47;21.63;54.92
68450;SHT30;67758;39.572;2.652;2024-02-21T13:01:13;20.93;55.95
68450;SHT30;67758;39.572;2.652;2024-02-21T13:03:39;21.07;56.07
68450;SHT30;67758;39.572;2.652;2024-02-21T13:06:05;20.36;57.16
68450;SHT30;67758;39.572;2.652;2024-02-21T13:08:31;20.74;56.99
68450;SHT30;67758;39.572;2.652;2024-02-21T13:10:57;20.71;56.76
68450;SHT30;67758;39.572;2.652;2024-02-21T13:13:22;20.46;57.92
68450;SHT30;67758;39.572;2.652;2024-02-21T13:15:49;20.12;57.98
68450;SHT30;67758;39.572;2.652;2024-02-21T13:18:14;20.33;57.23
68450;SHT30;67758;39.572;2.652;2024-02-21T13:20:40;19.99;57.18
68450;SHT30;67758;39.572;2.652;2024-02-21T13:23:05;20.04;57.19
68450;SHT30;67758;39.572;2.652;2024-02-21T13:25:34;20.25;56.38
68450;SHT30;67758;39.572;2.652;2024-02-21T13:28:02;20.39;56.30
68450;SHT30;67758;39.572;2.652;2024-02-21T13:30:28;20.10;56.43
68450;SHT30;67758;39.572;2.652;2024-02-21T13:32:56;20.19;56.12
68450;SHT30;67758;39.572;2.652;2024-02-21T13:35:22;20.19;56.22
68450;SHT30;67758;39.572;2.652;2024-02-21T13:37:50;20.05;55.84
68450;SHT30;67758;39.572;2.652;2024-02-21T13:40:19;20.16;55.63
68450;SHT30;67758;39.572;2.652;2024-02-21T13:42:45;20.61;55.27
68450;SHT30;67758;39.572;2.652;2024-02-21T13:45:20;21.00;53.98
68450;SHT30;67758;39.572;2.652;2024-02-21T13:47:51;20.85;53.87
68450;SHT30;67758;39.572;2.652;2024-02-21T13:50:23;20.54;54.31
68450;SHT30;67758;39.572;2.652;2024-02-21T13:52:49;19.96;56.26
68450;SHT30;67758;39.572;2.652;2024-02-21T13:55:14;19.75;56.45
68450;SHT30;67758;39.572;2.652;2024-02-21T13:57:52;20.15;56.41
68450;SHT30;67758;39.572;2.652;2024-02-21T14:00:30;20.39;56.46
68450;SHT30;67758;39.572;2.652;2024-02-21T14:02:58;20.53;56.26
68450;SHT30;67758;39.572;2.652;2024-02-21T14:05:25;20.77;56.09
68450;SHT30;67758;39.572;2.652;2024-02-21T14:07:50;20.79;56.14
68450;SHT30;67758;39.572;2.652;2024-02-21T14:10:23;20.67;56.64
68450;SHT30;67758;39.572;2.652;2024-02-21T14:12:59;20.94;56.26
68450;SHT30;67758;39.572;2.652;2024-02-21T14:15:24;21.17;55.87
68450;SHT30;67758;39.572;2.652;2024-02-21T14:17:56;21.08;55.71
68450;SHT30;67758;39.572;2.652;2024-02-21T14:20:23;21.17;55.79
68450;SHT30;67758;39.572;2.652;2024-02-21T14:22:56;21.01;56.80
68450;SHT30;67758;39.572;2.652;2024-02-21T14:25:24;20.93;57.37
68450;SHT30;67758;39.572;2.652;2024-02-21T14:27:53;20.87;57.58
68450;SHT30;67758;39.572;2.652;2024-02-21T14:30:27;20.54;58.57
68450;SHT30;67758;39.572;2.652;2024-02-21T14:32:58;20.22;59.92
68450;SHT30;67758;39.572;2.652;2024-02-21T14:35:39;19.83;60.90
68450;SHT30;67758;39.572;2.652;2024-02-21T14:38:14;19.96;61.18
68450;SHT30;67758;39.572;2.652;2024-02-21T14:40:45;20.02;61.22
68450;SHT30;67758;39.572;2.652;2024-02-21T14:43:13;19.92;61.62
68450;SHT30;67758;39.572;2.652;2024-02-21T14:46:08;19.50;62.74
68450;SHT30;67758;39.572;2.652;2024-02-21T14:49:01;19.11;62.95
68450;SHT30;67758;39.572;2.652;2024-02-21T14:51:33;19.13;63.27
68450;SHT30;67758;39.572;2.652;2024-02-21T14:54:04;19.30;63.31
68450;SHT30;67758;39.572;2.652;2024-02-21T14:56:30;19.34;63.38
68450;SHT30;67758;39.572;2.652;2024-02-21T14:58:59;19.47;62.98
68450;SHT30;67758;39.572;2.652;2024-02-21T15:01:25;19.23;64.04
68450;SHT30;67758;39.572;2.652;2024-02-21T15:03:51;19.18;64.34
68450;SHT30;67758;39.572;2.652;2024-02-21T15:06:17;19.03;64.32
68450;SHT30;67758;39.572;2.652;2024-02-21T15:08:45;18.77;65.45
68450;SHT30;67758;39.572;2.652;2024-02-21T15:11:10;18.82;66.38
68450;SHT30;67758;39.572;2.652;2024-02-21T15:13:36;18.92;65.17
68450;SHT30;67758;39.572;2.652;2024-02-21T15:16:02;18.90;66.03
68450;SHT30;67758;39.572;2.652;2024-02-21T15:18:34;19.11;65.66
68450;SHT30;67758;39.572;2.652;2024-02-21T15:21:02;19.03;65.65
68450;SHT30;67758;39.572;2.652;2024-02-21T15:23:31;18.70;66.84
68450;SHT30;67758;39.572;2.652;2024-02-21T15:25:57;18.31;67.98
68450;SHT30;67758;39.572;2.652;2024-02-21T15:28:25;18.14;68.19
68450;SHT30;67758;39.572;2.652;2024-02-21T15:30:54;17.98;68.90
68450;SHT30;67758;39.572;2.652;2024-02-21T15:33:19;17.98;68.59
68450;SHT30;67758;39.572;2.652;2024-02-21T15:35:45;18.00;68.91
68450;SHT30;67758;39.572;2.652;2024-02-21T15:38:10;17.70;69.80
68450;SHT30;67758;39.572;2.652;2024-02-21T15:40:36;17.47;70.27
68450;SHT30;67758;39.572;2.652;2024-02-21T15:43:02;17.24;71.17
68450;SHT30;67758;39.572;2.652;2024-02-21T15:45:28;17.05;72.20